الصفحة الرئيسية
METAR-TAF:

METAR-TAF

مطار :

Puerto Peñasco, المكسيك

دائرة عرض: 31-21-07N, خط طول: 113-18-20W, ارتفاع: 22 متر

مراقبة الطقس الحالي

تاريخ ووقت الإصدار 15ساعات و 46 دقيقة قبل الساعة 14:48UTC
ريح 9 عقدة من الشمال
درجة الحرارة 7°درجة مئوية
الرطوبة 76%
ضغط 1024 hPa
الرؤية: 16.1 كم
سماء صافية

METAR: MMPE 131448Z 36009KT 10SM SKC 07/03 A3023 RMK RTS

زمن: 23:34 (06:34 UTC)


TAF: مفقودة

أرصاد الطقس والتوقعات من أكثر من 4000 مطار (تقارير الطقس للمطار METAR والتنبؤ بالطقس بالمطارTAF).

المحطات المتاحة هي النقط الصفراء والحمراء على الخريطة.

حرك المؤشر فوق النقطة لمعرفة اسم المحطة.

ثم انقر لمعرفة أرصاد وتوقعات الطقس.

لتغيير الخارطة: اضغط على الأزرار الخضراء مع رمز الصليب الأسود للتكبير. على الزر الأخضر مع شرطة للتصغير، أو على الأسهم الخضراء للخرائط المجاورة.


METAR-TAF: